Meteo Giornale » Osservazioni meteo Italia » Brescia-Ghedi

ore: 05:55 - Osservazioni Meteo Brescia-Ghedi
Lat. 45° 25' N Lon. 10° 17' E Alt. 102 metri s.l.m.

nuvoloso Europe/Rome

22 °C

Nuvoloso

Temp. 24 Ore

22 °C

30 °C

Est

14.8 Km/h

Dew point 20 °C

Umidità 88 %

Visibilità  8 Km

Il sole sorge alle ore 06:21

Il sole tramonta alle ore 20:23

Data e Ora Cielo e Fenomeni T °C DP °C Um. % Pres. hPa Vis. km Vento km/h
Oggi h: 05:55 nuvoloso Nuvoloso 22 20 88 1011 8 E 14.8
Oggi h: 04:55 nuvoloso_temporali Temporale con Pioggia Debole 22 20 88 1011 8 E 11.1
Oggi h: 04:10 nuvoloso_temporali Temporale con Pioggia Debole 22 21 94 1012 8 O/SO 13
Oggi h: 03:55 coperto_pioggia Pioggia Debole 22 21 94 1012 10 O 9.3
Oggi h: 02:55 nuvoloso Nuvoloso 22 21 94 1012 10 N 3.7
Oggi h: 01:55 nuvoloso Nuvoloso 22 21 94 1012 10 N 1.8
Oggi h: 00:55 nuvoloso Nuvoloso 23 22 94 1013 10 N 3.7
Ieri h: 23:55 nuvoloso Nuvoloso 23 22 94 1013 10 N 1.8
Ieri h: 22:55 nuvoloso Nuvoloso 23 22 94 1013 10 E 9.3
Ieri h: 21:55 nuvoloso Nuvoloso 24 23 94 1013 10 E/SE 22.2
Ieri h: 20:55 nuvoloso Nuvoloso 25 24 94 1012 10 N 5.5
Ieri h: 19:55 poco_nuvoloso Poco Nuvoloso 26 24 88 1011 10 N 3.7
Ieri h: 18:55 nuvoloso Nuvoloso 28 23 74 1013 10 O 14.8
Ieri h: 17:55 poco_nuvoloso Poco Nuvoloso 29 21 62 1012 10 N 5.5
Ieri h: 16:55 poco_nuvoloso Poco Nuvoloso 29 21 62 1013 10 N 3.7
Ieri h: 15:55 sereno Sereno 30 20 55 1013 10 S/SE 9.3
Ieri h: 14:55 sereno Sereno 29 20 58 1013 10 SE 11.1
Ieri h: 13:55 sereno Sereno 29 19 54 1013 10 S 7.4
Ieri h: 12:55 sereno Sereno 28 18 54 1013 10 S/SE 9.3
Ieri h: 11:55 sereno Sereno 28 18 54 1013 10 SE 11.1
Ieri h: 10:55 sereno Sereno 28 18 54 1013 10 S/SE 11.1
Ieri h: 09:55 sereno Sereno 28 21 65 1014 10 SE 13
Ieri h: 08:55 sereno Sereno 25 21 78 1014 10 SE 7.4
Ieri h: 07:55 poco_nuvoloso Poco Nuvoloso 23 21 88 1013 10 N 5.5